Time;durP1;ratioP1;P1;durP2;ratioP2;P2;SDS_P1;SDS_P2;PMS_P1;PMS_P2;Temp;Humidity;BMP_temperature;BMP_pressure;BME280_temperature;BME280_humidity;BME280_pressure;Samples;Min_cycle;Max_cycle;Signal;HPM_P1;HPM_P2
2022/05/27 00:01:21;;;;;;;;;;;;;;;15.11;nan;101059.22;5042554;28;19948;-71
2022/05/27 00:03:46;;;;;;;;;;;;;;;15.14;nan;101058.91;5045948;28;19990;-71
2022/05/27 00:06:11;;;;;;;;;;;;;;;15.18;nan;101058.41;5044129;28;19928;-71
2022/05/27 00:08:37;;;;;;;;;;;;;;;15.20;nan;101053.72;5042601;28;19925;-71
2022/05/27 00:11:02;;;;;;;;;;;;;;;15.23;nan;101063.19;5044562;28;19924;-71
2022/05/27 00:13:28;;;;;;;;;;;;;;;15.24;nan;101054.22;5046297;28;19943;-71
2022/05/27 00:15:54;;;;;;;;;;;;;;;15.24;nan;101054.22;5047070;28;19974;-70
2022/05/27 00:18:19;;;;;;;;;;;;;;;15.22;nan;101049.03;5046185;28;19933;-71
2022/05/27 00:20:45;;;;;;;;;;;;;;;15.21;nan;101044.72;5040623;28;19921;-71
2022/05/27 00:23:10;;;;;;;;;;;;;;;15.18;nan;101050.41;5044864;28;20385;-71
2022/05/27 00:25:35;;;;;;;;;;;;;;;15.16;nan;101048.88;5048205;28;19920;-71
2022/05/27 00:28:00;;;;;;;;;;;;;;;15.11;nan;101044.09;5045699;28;19932;-71
2022/05/27 00:30:26;;;;;;;;;;;;;;;15.05;nan;101044.75;5038789;28;19929;-71
2022/05/27 00:32:51;;;;;;;;;;;;;;;15.01;nan;101049.56;5047596;28;20341;-71
2022/05/27 00:35:17;;;;;;;;;;;;;;;14.95;nan;101055.59;5038948;28;20230;-71
2022/05/27 00:37:42;;;;;;;;;;;;;;;14.88;nan;101041.28;5048534;28;19990;-71
2022/05/27 00:40:08;;;;;;;;;;;;;;;14.80;nan;101042.13;5041125;28;19933;-71
2022/05/27 00:42:33;;;;;;;;;;;;;;;14.73;nan;101049.09;5043812;28;19944;-71
2022/05/27 00:44:58;;;;;;;;;;;;;;;14.70;nan;101045.94;5038737;28;20047;-71
2022/05/27 00:47:25;;;;;;;;;;;;;;;14.71;nan;101039.63;5053703;28;19943;-71
2022/05/27 00:49:58;;;;;;;;;;;;;;;14.68;nan;101039.94;5041630;28;19978;-71
2022/05/27 00:52:26;;;;;;;;;;;;;;;14.61;nan;101040.63;5041022;28;19917;-71
2022/05/27 00:54:52;;;;;;;;;;;;;;;14.52;nan;101033.59;5049030;28;19948;-71
2022/05/27 00:57:22;;;;;;;;;;;;;;;14.45;nan;101035.25;5050339;28;20374;-71
2022/05/27 00:59:54;;;;;;;;;;;;;;;14.39;nan;101038.53;5038043;28;20016;-71
2022/05/27 01:02:20;;;;;;;;;;;;;;;14.33;nan;101033.91;5036924;28;20184;-71
2022/05/27 01:04:46;;;;;;;;;;;;;;;14.26;nan;101027.56;5047649;28;19924;-71
2022/05/27 01:07:11;;;;;;;;;;;;;;;14.20;nan;101024.53;5051863;28;19917;-70
2022/05/27 01:09:38;;;;;;;;;;;;;;;14.15;nan;101024.19;5042508;28;19994;-71
2022/05/27 01:12:04;;;;;;;;;;;;;;;14.10;nan;101029.19;5052423;28;20389;-71
2022/05/27 01:14:32;;;;;;;;;;;;;;;14.07;nan;101018.88;5053737;28;19921;-71
2022/05/27 01:17:11;;;;;;;;;;;;;;;14.04;nan;101019.22;5053802;28;19931;-71
2022/05/27 01:22:35;;;;;;;;;;;;;;;13.98;nan;101020.66;5046664;28;20344;-71
2022/05/27 01:25:00;;;;;;;;;;;;;;;14.00;nan;101020.53;5034388;28;19929;-71
2022/05/27 01:27:37;;;;;;;;;;;;;;;14.02;nan;101018.53;5038067;28;19936;-71
2022/05/27 01:30:19;;;;;;;;;;;;;;;14.03;nan;101017.53;5032409;28;20015;-71
2022/05/27 01:32:55;;;;;;;;;;;;;;;14.00;nan;101031.97;5037821;28;19975;-71
2022/05/27 01:35:26;;;;;;;;;;;;;;;13.95;nan;101020.19;5035783;28;19932;-71
2022/05/27 01:38:01;;;;;;;;;;;;;;;13.91;nan;101010.84;5039261;28;19921;-71
2022/05/27 01:40:59;;;;;;;;;;;;;;;13.96;nan;101013.84;5047884;28;19925;-71
2022/05/27 01:43:24;;;;;;;;;;;;;;;13.97;nan;101018.19;5038342;28;20132;-71
2022/05/27 01:45:54;;;;;;;;;;;;;;;13.97;nan;101004.91;5035717;28;19955;-71
2022/05/27 01:48:19;;;;;;;;;;;;;;;13.96;nan;101003.22;5056018;28;19920;-71
2022/05/27 01:50:59;;;;;;;;;;;;;;;13.93;nan;101007.03;5065422;28;20313;-71
2022/05/27 01:53:28;;;;;;;;;;;;;;;13.95;nan;101004.22;5057214;28;19928;-71
2022/05/27 01:56:08;;;;;;;;;;;;;;;13.94;nan;100991.91;5064566;28;19935;-71
2022/05/27 01:58:36;;;;;;;;;;;;;;;13.94;nan;100986.59;5060704;28;19962;-71
2022/05/27 02:01:03;;;;;;;;;;;;;;;13.93;nan;100982.28;5062714;28;19920;-71
2022/05/27 02:03:36;;;;;;;;;;;;;;;13.93;nan;100984.94;5060154;28;19955;-71
2022/05/27 02:06:13;;;;;;;;;;;;;;;13.94;nan;100979.47;5052264;28;20006;-71
2022/05/27 02:08:42;;;;;;;;;;;;;;;13.95;nan;100988.28;5070507;28;19917;-71
2022/05/27 02:11:13;;;;;;;;;;;;;;;13.95;nan;100996.25;5066895;28;20165;-71
2022/05/27 02:13:38;;;;;;;;;;;;;;;13.89;nan;100989.75;5073140;28;19916;-71
2022/05/27 02:16:04;;;;;;;;;;;;;;;13.90;nan;100995.91;5059709;28;19931;-70
2022/05/27 02:18:50;;;;;;;;;;;;;;;13.88;nan;101004.03;5056086;28;20704;-71
2022/05/27 02:21:26;;;;;;;;;;;;;;;13.93;nan;100998.22;5057181;28;19923;-71
2022/05/27 02:23:54;;;;;;;;;;;;;;;14.08;nan;101003.75;5070113;28;20361;-71
2022/05/27 02:26:21;;;;;;;;;;;;;;;14.22;nan;100995.94;5069785;28;19983;-71
2022/05/27 02:28:49;;;;;;;;;;;;;;;14.33;nan;100999.31;5054467;28;19920;-71
2022/05/27 02:31:18;;;;;;;;;;;;;;;14.39;nan;100998.63;5066474;28;20003;-71
2022/05/27 02:36:35;;;;;;;;;;;;;;;14.52;nan;101001.66;5070322;28;19931;-71
2022/05/27 02:39:00;;;;;;;;;;;;;;;14.58;nan;100998.34;5070869;28;19925;-71
2022/05/27 02:41:31;;;;;;;;;;;;;;;14.61;nan;100995.38;5068807;28;19971;-71
2022/05/27 02:44:08;;;;;;;;;;;;;;;14.61;nan;100989.19;5068282;28;20058;-71
2022/05/27 02:46:36;;;;;;;;;;;;;;;14.52;nan;100991.00;5051640;28;20425;-71
2022/05/27 02:49:06;;;;;;;;;;;;;;;14.51;nan;100988.50;5059051;28;20309;-71
2022/05/27 02:51:32;;;;;;;;;;;;;;;14.49;nan;100991.34;5055214;28;19917;-71
2022/05/27 02:54:20;;;;;;;;;;;;;;;14.48;nan;100984.34;5065449;28;20292;-71
2022/05/27 02:56:52;;;;;;;;;;;;;;;14.47;nan;100981.84;5055273;28;19931;-71
2022/05/27 02:59:18;;;;;;;;;;;;;;;14.44;nan;100980.34;5062800;28;19924;-71
2022/05/27 03:01:45;;;;;;;;;;;;;;;14.36;nan;100983.00;5060602;28;19925;-71
2022/05/27 03:04:10;;;;;;;;;;;;;;;14.31;nan;100982.69;5059802;28;20381;-71
2022/05/27 03:06:44;;;;;;;;;;;;;;;14.31;nan;100993.31;5059637;28;19947;-71
2022/05/27 03:09:13;;;;;;;;;;;;;;;14.39;nan;100990.66;5058214;28;19927;-71
2022/05/27 03:11:56;;;;;;;;;;;;;;;14.51;nan;100991.16;5052153;28;19921;-71
2022/05/27 03:14:28;;;;;;;;;;;;;;;14.62;nan;100991.69;5069448;28;20460;-71
2022/05/27 03:17:17;;;;;;;;;;;;;;;14.67;nan;100995.69;5065678;28;19982;-71
2022/05/27 03:19:51;;;;;;;;;;;;;;;14.71;nan;100992.53;5069980;28;19940;-71
2022/05/27 03:22:35;;;;;;;;;;;;;;;14.77;nan;100993.69;5065557;28;19921;-71
2022/05/27 03:25:06;;;;;;;;;;;;;;;14.82;nan;100996.66;5062736;28;20361;-71
2022/05/27 03:27:39;;;;;;;;;;;;;;;14.84;nan;100992.84;5059669;28;20328;-71
2022/05/27 03:30:06;;;;;;;;;;;;;;;14.89;nan;100989.66;5061196;28;19928;-71
2022/05/27 03:32:44;;;;;;;;;;;;;;;14.93;nan;100995.50;5069780;28;19917;-71
2022/05/27 03:35:09;;;;;;;;;;;;;;;14.96;nan;100998.66;5067569;28;19924;-71
2022/05/27 03:37:39;;;;;;;;;;;;;;;15.01;nan;100988.31;5062807;28;19991;-71
2022/05/27 03:40:07;;;;;;;;;;;;;;;15.03;nan;100983.66;5070445;28;20105;-72
2022/05/27 03:42:34;;;;;;;;;;;;;;;15.07;nan;100990.31;5061803;28;20170;-71
2022/05/27 03:45:16;;;;;;;;;;;;;;;15.10;nan;100991.81;5062712;28;19960;-71
2022/05/27 03:47:42;;;;;;;;;;;;;;;15.13;nan;100983.47;5068917;28;19924;-71
2022/05/27 03:50:10;;;;;;;;;;;;;;;15.16;nan;100990.28;5063593;28;19916;-70
2022/05/27 03:52:43;;;;;;;;;;;;;;;15.16;nan;100992.94;5055321;28;19921;-71
2022/05/27 03:55:09;;;;;;;;;;;;;;;15.18;nan;100996.28;5063428;28;19948;-71
2022/05/27 03:57:35;;;;;;;;;;;;;;;15.19;nan;100998.78;5058805;28;19956;-71
2022/05/27 04:00:00;;;;;;;;;;;;;;;15.22;nan;101000.28;5054868;28;19951;-71
2022/05/27 04:02:25;;;;;;;;;;;;;;;15.24;nan;101017.75;5062846;28;19932;-71
2022/05/27 04:04:50;;;;;;;;;;;;;;;15.27;nan;101013.91;5071161;28;20024;-71
2022/05/27 04:07:16;;;;;;;;;;;;;;;15.29;nan;101022.56;5060670;28;19927;-71
2022/05/27 04:09:41;;;;;;;;;;;;;;;15.29;nan;101020.72;5068993;28;19921;-72
2022/05/27 04:12:06;;;;;;;;;;;;;;;15.29;nan;101025.22;5059048;28;20557;-71
2022/05/27 04:14:32;;;;;;;;;;;;;;;15.31;nan;101025.88;5056076;28;19956;-71
2022/05/27 04:17:27;;;;;;;;;;;;;;;15.32;nan;101024.88;5063385;28;19928;-71
2022/05/27 04:19:42;;;;;;;;;;;;;;;15.29;nan;101020.72;5067131;28;20336;-71
2022/05/27 04:22:08;;;;;;;;;;;;;;;15.31;nan;101011.75;5067549;28;19927;-71
2022/05/27 04:24:33;;;;;;;;;;;;;;;15.32;nan;101013.41;5066499;28;19952;-71
2022/05/27 04:26:58;;;;;;;;;;;;;;;15.29;nan;101022.56;5061017;28;19947;-71
2022/05/27 04:29:24;;;;;;;;;;;;;;;15.32;nan;101026.72;5054953;28;19929;-71
2022/05/27 04:31:49;;;;;;;;;;;;;;;15.35;nan;101029.88;5067725;28;19925;-71
2022/05/27 04:34:14;;;;;;;;;;;;;;;15.44;nan;101031.50;5067244;28;19916;-71
2022/05/27 04:36:39;;;;;;;;;;;;;;;15.58;nan;101037.13;5073069;28;19952;-71
2022/05/27 04:39:04;;;;;;;;;;;;;;;15.67;nan;101033.44;5074185;28;20263;-71
2022/05/27 04:41:30;;;;;;;;;;;;;;;15.77;nan;101041.25;5072191;28;19920;-71
2022/05/27 04:43:55;;;;;;;;;;;;;;;15.88;nan;101041.72;5071076;28;19920;-71
2022/05/27 04:46:20;;;;;;;;;;;;;;;16.00;nan;101038.66;5066919;28;19920;-70
2022/05/27 04:48:45;;;;;;;;;;;;;;;16.08;nan;101033.28;5059756;28;20475;-71
2022/05/27 04:51:11;;;;;;;;;;;;;;;16.14;nan;101040.59;5063092;28;19946;-69
2022/05/27 04:53:36;;;;;;;;;;;;;;;16.18;nan;101041.06;5053442;28;19928;-72
2022/05/27 04:56:02;;;;;;;;;;;;;;;16.25;nan;101044.69;5061940;28;20385;-72
2022/05/27 04:58:27;;;;;;;;;;;;;;;16.30;nan;101040.50;5056372;28;19921;-71
2022/05/27 05:00:52;;;;;;;;;;;;;;;16.35;nan;101043.44;5057378;28;20028;-72
2022/05/27 05:03:17;;;;;;;;;;;;;;;16.40;nan;101039.41;5055449;28;19944;-69
2022/05/27 05:05:43;;;;;;;;;;;;;;;16.41;nan;101052.59;5056575;28;20011;-71
2022/05/27 05:08:20;;;;;;;;;;;;;;;16.42;nan;101048.06;5055602;28;19921;-71
2022/05/27 05:10:45;;;;;;;;;;;;;;;16.42;nan;101048.91;5063860;28;19959;-71
2022/05/27 05:13:11;;;;;;;;;;;;;;;16.46;nan;101050.22;5058345;28;19971;-71
2022/05/27 05:15:36;;;;;;;;;;;;;;;16.50;nan;101046.19;5060405;28;19924;-71
2022/05/27 05:18:01;;;;;;;;;;;;;;;16.54;nan;101036.81;5062948;28;19962;-71
2022/05/27 05:20:28;;;;;;;;;;;;;;;16.57;nan;101048.97;5059923;28;19931;-71
2022/05/27 05:22:53;;;;;;;;;;;;;;;16.55;nan;101040.31;5055382;28;19924;-71
2022/05/27 05:25:19;;;;;;;;;;;;;;;16.54;nan;101043.97;5059348;28;20437;-71
2022/05/27 05:27:44;;;;;;;;;;;;;;;16.51;nan;101049.69;5060460;28;19920;-71
2022/05/27 05:30:11;;;;;;;;;;;;;;;16.51;nan;101055.00;5058070;28;19920;-71
2022/05/27 05:32:37;;;;;;;;;;;;;;;16.54;nan;101044.81;5058869;28;19928;-71
2022/05/27 05:35:02;;;;;;;;;;;;;;;16.60;nan;101045.13;5064536;28;19928;-71
2022/05/27 05:37:27;;;;;;;;;;;;;;;16.64;nan;101052.59;5054002;28;19971;-71
2022/05/27 05:39:53;;;;;;;;;;;;;;;16.66;nan;101058.59;5060001;28;20034;-71
2022/05/27 05:42:18;;;;;;;;;;;;;;;16.72;nan;101043.69;5056234;28;20282;-72
2022/05/27 05:44:44;;;;;;;;;;;;;;;16.83;nan;101034.44;5062502;28;19920;-72
2022/05/27 05:47:09;;;;;;;;;;;;;;;17.00;nan;101027.94;5059947;28;19927;-71
2022/05/27 05:49:34;;;;;;;;;;;;;;;17.13;nan;101017.44;5052658;28;20023;-71
2022/05/27 05:52:00;;;;;;;;;;;;;;;17.19;nan;101008.72;5060509;28;20012;-72
2022/05/27 05:54:26;;;;;;;;;;;;;;;17.29;nan;101008.44;5058808;28;20381;-72
2022/05/27 05:56:52;;;;;;;;;;;;;;;17.38;nan;101003.84;5061692;28;20062;-72
2022/05/27 05:59:19;;;;;;;;;;;;;;;17.39;nan;101008.16;5055914;28;20341;-71
2022/05/27 06:01:45;;;;;;;;;;;;;;;17.42;nan;101005.09;5051653;28;20385;-72
2022/05/27 06:04:10;;;;;;;;;;;;;;;17.45;nan;101003.91;5065185;28;19932;-71
2022/05/27 06:06:36;;;;;;;;;;;;;;;17.44;nan;101011.09;5062419;28;20411;-71
2022/05/27 06:09:02;;;;;;;;;;;;;;;17.45;nan;101004.75;5056001;28;19920;-72
2022/05/27 06:11:27;;;;;;;;;;;;;;;17.49;nan;101005.19;5055418;28;20373;-71
2022/05/27 06:13:52;;;;;;;;;;;;;;;17.47;nan;101005.41;5063415;28;20011;-71
2022/05/27 06:16:18;;;;;;;;;;;;;;;17.48;nan;101004.38;5051985;28;19925;-72
2022/05/27 06:18:43;;;;;;;;;;;;;;;17.52;nan;101008.34;5054427;28;19921;-71
2022/05/27 06:21:08;;;;;;;;;;;;;;;17.58;nan;101006.75;5058741;28;20397;-72
2022/05/27 06:23:34;;;;;;;;;;;;;;;17.61;nan;101009.06;5069168;28;20416;-71
2022/05/27 06:26:04;;;;;;;;;;;;;;;17.63;nan;101009.69;5066428;28;19921;-71
2022/05/27 06:36:42;;;;;;;;;;;;;;;17.85;nan;101007.13;5071913;28;20460;-72
2022/05/27 06:39:08;;;;;;;;;;;;;;;17.96;nan;100999.44;5062904;28;20443;-72
2022/05/27 06:41:33;;;;;;;;;;;;;;;17.99;nan;100999.03;5060331;28;19925;-71
2022/05/27 06:43:58;;;;;;;;;;;;;;;18.03;nan;101005.69;5071051;28;19926;-71
2022/05/27 06:46:23;;;;;;;;;;;;;;;18.08;nan;101009.66;5067994;28;20270;-71
2022/05/27 06:48:49;;;;;;;;;;;;;;;18.08;nan;101002.44;5056085;28;19969;-71
2022/05/27 06:51:14;;;;;;;;;;;;;;;18.08;nan;101010.47;5061623;28;19924;-71
2022/05/27 06:53:39;;;;;;;;;;;;;;;18.23;nan;101013.09;5066327;28;19924;-71
2022/05/27 06:56:05;;;;;;;;;;;;;;;18.33;nan;101007.41;5065070;28;19936;-69
2022/05/27 06:58:30;;;;;;;;;;;;;;;18.50;nan;101010.69;5063893;28;19921;-71
2022/05/27 07:00:56;;;;;;;;;;;;;;;18.57;nan;101000.88;5053395;28;20405;-72
2022/05/27 07:03:21;;;;;;;;;;;;;;;18.60;nan;101008.50;5057849;28;19952;-72
2022/05/27 07:05:46;;;;;;;;;;;;;;;18.52;nan;101003.28;5054422;28;19921;-71
2022/05/27 07:08:13;;;;;;;;;;;;;;;18.50;nan;101002.66;5064315;28;19933;-71
2022/05/27 07:10:38;;;;;;;;;;;;;;;18.50;nan;101008.84;5054187;28;19917;-72
2022/05/27 07:13:03;;;;;;;;;;;;;;;18.49;nan;101015.19;5061015;28;19921;-71
2022/05/27 07:15:31;;;;;;;;;;;;;;;18.62;nan;101011.84;5068892;28;20020;-71
2022/05/27 07:17:57;;;;;;;;;;;;;;;18.82;nan;101014.69;5057203;28;19932;-72
2022/05/27 07:20:23;;;;;;;;;;;;;;;18.99;nan;101013.38;5067245;28;19930;-72
2022/05/27 07:22:48;;;;;;;;;;;;;;;19.09;nan;101021.06;5054875;28;19963;-72
2022/05/27 07:25:14;;;;;;;;;;;;;;;19.04;nan;101015.47;5055678;28;20011;-71
2022/05/27 07:27:40;;;;;;;;;;;;;;;18.95;nan;101005.91;5062103;28;19970;-72
2022/05/27 07:30:07;;;;;;;;;;;;;;;18.98;nan;101002.88;5072269;28;19920;-72
2022/05/27 07:32:36;;;;;;;;;;;;;;;18.93;nan;101003.47;5063702;28;19921;-72
2022/05/27 07:35:02;;;;;;;;;;;;;;;18.89;nan;101003.00;5063556;28;19924;-71
2022/05/27 07:37:27;;;;;;;;;;;;;;;18.84;nan;101000.09;5052889;28;19947;-69
2022/05/27 07:39:52;;;;;;;;;;;;;;;18.96;nan;101004.91;5062994;28;20003;-71
2022/05/27 07:42:17;;;;;;;;;;;;;;;19.08;nan;101008.72;5063731;28;19926;-72
2022/05/27 07:44:43;;;;;;;;;;;;;;;19.14;nan;101013.28;5061998;28;19928;-72
2022/05/27 07:47:08;;;;;;;;;;;;;;;18.95;nan;101001.41;5058625;28;20474;-71
2022/05/27 07:49:33;;;;;;;;;;;;;;;18.81;nan;101005.00;5064211;28;19921;-72
2022/05/27 07:51:59;;;;;;;;;;;;;;;18.66;nan;101013.09;5068918;28;19924;-72
2022/05/27 07:54:24;;;;;;;;;;;;;;;18.60;nan;101016.56;5056938;28;19929;-72
2022/05/27 07:56:49;;;;;;;;;;;;;;;18.57;nan;101023.13;5062289;28;20382;-72
2022/05/27 07:59:14;;;;;;;;;;;;;;;18.53;nan;101018.34;5059827;28;20003;-71
2022/05/27 08:01:40;;;;;;;;;;;;;;;18.45;nan;101016.63;5056263;28;19928;-71
2022/05/27 08:04:06;;;;;;;;;;;;;;;18.36;nan;101015.09;5060145;28;20342;-71
2022/05/27 08:06:31;;;;;;;;;;;;;;;18.37;nan;101017.56;5071235;28;19912;-72
2022/05/27 08:08:57;;;;;;;;;;;;;;;18.39;nan;101012.84;5068983;28;19940;-72
2022/05/27 08:11:24;;;;;;;;;;;;;;;18.52;nan;101017.53;5071575;28;19921;-72
2022/05/27 08:13:49;;;;;;;;;;;;;;;18.63;nan;101021.50;5064104;28;19927;-71
2022/05/27 08:16:14;;;;;;;;;;;;;;;18.69;nan;101012.72;5067164;28;19924;-69
2022/05/27 08:18:39;;;;;;;;;;;;;;;18.67;nan;101012.09;5063296;28;19929;-71
2022/05/27 08:21:05;;;;;;;;;;;;;;;18.58;nan;101013.22;5068378;28;19944;-72
2022/05/27 08:23:30;;;;;;;;;;;;;;;18.52;nan;101016.66;5057689;28;19920;-69
2022/05/27 08:25:56;;;;;;;;;;;;;;;18.40;nan;101016.34;5055961;28;19933;-71
2022/05/27 08:28:24;;;;;;;;;;;;;;;18.31;nan;101017.53;5053705;28;19940;-71
2022/05/27 08:30:49;;;;;;;;;;;;;;;18.23;nan;101027.34;5058575;28;20007;-72
2022/05/27 08:33:15;;;;;;;;;;;;;;;18.09;nan;101024.69;5068689;28;19952;-72
2022/05/27 08:38:29;;;;;;;;;;;;;;;18.03;nan;101012.88;5047225;28;19928;-71
2022/05/27 08:41:00;;;;;;;;;;;;;;;17.96;nan;101015.47;5050101;28;19921;-71
2022/05/27 08:43:38;;;;;;;;;;;;;;;17.88;nan;101012.13;5055718;28;19917;-71
2022/05/27 08:46:03;;;;;;;;;;;;;;;17.85;nan;101015.13;5055241;28;19977;-71
2022/05/27 08:48:32;;;;;;;;;;;;;;;17.83;nan;101004.66;5054319;28;20389;-71
2022/05/27 08:51:00;;;;;;;;;;;;;;;17.83;nan;101010.81;5036125;28;20553;-71
2022/05/27 08:53:33;;;;;;;;;;;;;;;17.87;nan;101011.25;5034808;28;19984;-71
2022/05/27 16:25:27;;;;;;;1.63;1.00;;;;;;;21.91;44.26;100707.09;5050775;28;20415;-72
2022/05/27 16:27:57;;;;;;;1.70;0.98;;;;;;;22.19;43.99;100726.28;5050226;28;20036;-70
2022/05/27 16:30:26;;;;;;;1.58;0.85;;;;;;;23.04;43.17;100829.84;5042791;28;20884;-71
2022/05/27 16:32:52;;;;;;;1.40;0.90;;;;;;;23.30;42.45;100828.66;5044980;28;20045;-71
2022/05/27 16:35:19;;;;;;;1.73;0.80;;;;;;;22.68;43.05;100824.19;5046959;28;20037;-71
2022/05/27 16:37:45;;;;;;;1.83;0.90;;;;;;;22.38;44.08;100828.66;5045218;28;20033;-71
2022/05/27 16:40:12;;;;;;;2.15;1.10;;;;;;;22.13;44.29;100826.81;5043644;28;20033;-71
2022/05/27 16:42:38;;;;;;;1.90;0.98;;;;;;;21.88;43.67;100817.91;5039619;28;20044;-71
2022/05/27 16:45:05;;;;;;;1.25;0.80;;;;;;;21.78;44.53;100816.50;5042332;28;20057;-71
2022/05/27 16:47:31;;;;;;;2.95;1.00;;;;;;;21.68;44.76;100812.66;5041249;28;20120;-71
2022/05/27 16:49:57;;;;;;;1.13;0.80;;;;;;;21.59;45.37;100818.31;5039659;28;20076;-71
2022/05/27 16:52:23;;;;;;;2.08;1.15;;;;;;;21.48;44.74;100826.28;5041824;28;20036;-70
2022/05/27 16:54:49;;;;;;;1.60;1.08;;;;;;;21.33;44.77;100813.91;5042727;28;20044;-71
2022/05/27 16:57:15;;;;;;;3.50;1.13;;;;;;;21.29;45.26;100807.31;5044431;28;20037;-71
2022/05/27 16:59:41;;;;;;;1.48;0.70;;;;;;;21.31;45.71;100810.59;5039371;28;20037;-71
2022/05/27 17:02:08;;;;;;;1.52;1.00;;;;;;;21.29;45.82;100806.47;5039677;28;20040;-71
2022/05/27 17:04:34;;;;;;;0.98;0.70;;;;;;;21.21;46.01;100810.22;5043452;28;20033;-71
2022/05/27 17:06:59;;;;;;;1.45;0.90;;;;;;;21.13;46.09;100803.25;5043798;28;20502;-71
2022/05/27 17:09:24;;;;;;;2.20;0.80;;;;;;;21.15;45.88;100805.72;5043749;28;19917;-70
2022/05/27 17:11:50;;;;;;;1.40;0.90;;;;;;;21.29;45.65;100806.47;5042882;28;20064;-70
2022/05/27 17:14:16;;;;;;;2.47;1.10;;;;;;;21.48;44.58;100808.25;5043412;28;20048;-71
2022/05/27 17:16:41;;;;;;;1.38;0.90;;;;;;;21.57;43.63;100795.34;5042619;28;20037;-71
2022/05/27 17:19:07;;;;;;;1.30;0.98;;;;;;;21.59;43.97;100796.78;5041264;28;20482;-71
2022/05/27 17:21:32;;;;;;;2.60;1.20;;;;;;;21.47;43.84;100797.69;5041347;28;20060;-71
2022/05/27 17:23:58;;;;;;;2.42;1.30;;;;;;;21.33;43.87;100802.31;5042685;28;20029;-70
2022/05/27 17:26:23;;;;;;;4.00;1.20;;;;;;;21.20;43.37;100798.66;5045690;28;20091;-69
2022/05/27 17:28:49;;;;;;;2.13;1.08;;;;;;;21.07;43.43;100800.56;5043074;28;20033;-69
2022/05/27 17:31:15;;;;;;;;;;;;;;;20.92;43.96;100796.31;5044784;28;20203;-69
2022/05/27 17:33:41;;;;;;;2.88;1.10;;;;;;;20.87;43.94;100801.50;5042288;28;19999;-69
2022/05/27 17:36:06;;;;;;;2.92;1.20;;;;;;;20.78;44.39;100800.06;5031285;28;20037;-71
2022/05/27 17:38:32;;;;;;;1.70;0.93;;;;;;;20.66;44.44;100799.09;5031306;28;20037;-70
2022/05/27 17:40:58;;;;;;;2.80;1.10;;;;;;;20.56;45.17;100800.34;5031168;28;20466;-69
2022/05/27 17:43:23;;;;;;;2.15;1.25;;;;;;;20.46;45.52;100791.88;5027601;28;20121;-70
2022/05/27 17:45:48;;;;;;;2.25;1.20;;;;;;;20.41;46.13;100797.06;5030978;28;20511;-71
2022/05/27 17:51:20;;;;;;;2.17;1.08;;;;;;;20.28;46.29;100797.91;5025146;28;20052;-69
2022/05/27 17:53:48;;;;;;;2.30;1.38;;;;;;;20.17;46.46;100808.47;5033981;28;20095;-71
2022/05/27 17:56:14;;;;;;;3.15;1.58;;;;;;;20.12;46.42;100801.88;5034103;28;20037;-71
2022/05/27 17:58:40;;;;;;;3.05;1.27;;;;;;;20.05;46.65;100798.38;5033723;28;20037;-71
2022/05/27 18:01:05;;;;;;;2.58;1.30;;;;;;;20.02;46.45;100801.47;5032347;28;20109;-70
2022/05/27 18:03:30;;;;;;;2.22;1.52;;;;;;;20.04;46.56;100803.94;5032169;28;20069;-70
2022/05/27 18:05:56;;;;;;;3.90;1.45;;;;;;;20.05;46.84;100801.03;5031194;28;20045;-70
2022/05/27 18:08:21;;;;;;;2.85;1.60;;;;;;;20.07;47.06;100803.50;5029020;28;20477;-70
2022/05/27 18:10:47;;;;;;;2.00;1.40;;;;;;;20.02;47.47;100801.47;5030370;28;20029;-69
2022/05/27 18:13:13;;;;;;;2.00;1.38;;;;;;;19.88;47.80;100816.75;5029721;28;20041;-69
2022/05/27 18:15:38;;;;;;;3.30;1.38;;;;;;;19.81;47.98;100809.72;5029452;28;20091;-69
2022/05/27 18:18:03;;;;;;;2.65;1.60;;;;;;;19.65;48.59;100813.59;5028584;28;20117;-69
2022/05/27 18:20:29;;;;;;;2.20;1.30;;;;;;;19.59;48.34;100815.22;5027657;28;20044;-69
2022/05/27 18:22:54;;;;;;;1.77;1.30;;;;;;;19.51;48.79;100812.75;5031429;28;20034;-69
2022/05/27 18:25:21;;;;;;;4.63;2.00;;;;;;;19.40;49.54;100814.19;5031086;28;20044;-69
2022/05/27 18:27:49;;;;;;;3.35;1.67;;;;;;;19.32;49.56;100811.66;5029058;28;20060;-69
2022/05/27 18:30:15;;;;;;;1.95;1.50;;;;;;;19.24;49.57;100820.72;5031233;28;20402;-70
2022/05/27 18:32:40;;;;;;;1.70;1.02;;;;;;;19.34;50.01;100819.50;5030218;28;20465;-70
2022/05/27 18:35:07;;;;;;;2.40;1.38;;;;;;;19.22;50.43;100821.94;5031702;28;20037;-70
2022/05/27 18:37:33;;;;;;;2.70;1.45;;;;;;;19.21;50.30;100820.28;5031449;28;20044;-70
2022/05/27 18:39:58;;;;;;;2.00;1.40;;;;;;;19.22;50.51;100830.00;5039031;28;20141;-70
2022/05/27 18:42:23;;;;;;;3.35;1.30;;;;;;;19.24;50.41;100823.41;5052785;28;20552;-70
2022/05/27 18:44:50;;;;;;;2.15;1.40;;;;;;;19.22;50.50;100822.78;5055651;28;20045;-70
2022/05/27 18:47:15;;;;;;;3.88;1.67;;;;;;;19.17;50.35;100814.50;5055257;28;20052;-70
2022/05/27 18:49:41;;;;;;;2.20;1.58;;;;;;;19.12;50.55;100816.16;5051104;28;20033;-70
2022/05/27 18:52:21;;;;;;;2.53;1.40;;;;;;;19.07;50.79;100820.25;5044669;28;20037;-70
2022/05/27 18:54:46;;;;;;;5.00;1.60;;;;;;;19.07;50.83;100822.13;5048074;28;20037;-70
2022/05/27 18:57:12;;;;;;;2.85;1.70;;;;;;;19.02;50.98;100828.06;5049191;28;20078;-70
2022/05/27 18:59:38;;;;;;;2.08;1.40;;;;;;;19.03;51.32;100826.22;5043605;28;20120;-70
2022/05/27 19:02:04;;;;;;;2.33;1.40;;;;;;;19.04;51.16;100838.56;5044652;28;20112;-70
2022/05/27 19:04:29;;;;;;;3.30;1.60;;;;;;;19.04;50.96;100849.28;5043146;28;20037;-70
2022/05/27 19:06:56;;;;;;;2.67;1.70;;;;;;;19.02;51.61;100851.34;5042660;28;20075;-70
2022/05/27 19:09:22;;;;;;;2.33;1.35;;;;;;;19.00;51.25;100851.56;5043160;28;20360;-70
2022/05/27 19:11:47;;;;;;;3.08;1.50;;;;;;;18.98;50.80;100855.47;5044743;28;20039;-69
2022/05/27 19:14:13;;;;;;;3.28;1.10;;;;;;;18.94;49.54;100862.25;5043051;28;20608;-70
2022/05/27 19:16:38;;;;;;;2.47;1.30;;;;;;;18.86;48.81;100861.38;5042067;28;20079;-70
2022/05/27 19:21:49;;;;;;;3.50;1.35;;;;;;;18.67;48.39;100860.22;5048284;28;20181;-70
2022/05/27 19:24:15;;;;;;;3.65;1.17;;;;;;;18.54;47.63;100856.63;5047470;28;20033;-70
2022/05/27 19:26:40;;;;;;;3.47;1.38;;;;;;;18.42;47.17;100865.22;5047168;28;20040;-69
2022/05/27 19:29:05;;;;;;;2.67;1.23;;;;;;;18.38;47.17;100871.16;5046925;28;20033;-70
2022/05/27 19:31:31;;;;;;;3.58;1.10;;;;;;;18.32;47.23;100875.41;5047373;28;20087;-70
2022/05/27 19:33:56;;;;;;;2.05;1.02;;;;;;;18.29;47.12;100877.66;5045987;28;20056;-70
2022/05/27 19:36:24;;;;;;;3.83;1.08;;;;;;;18.21;47.06;100881.28;5045972;28;20122;-69
2022/05/27 19:38:50;;;;;;;1.90;1.00;;;;;;;18.09;47.32;100877.47;5046945;28;20040;-70
2022/05/27 19:41:17;;;;;;;2.47;1.10;;;;;;;17.97;47.20;100894.06;5045959;28;21539;-70
2022/05/27 19:43:45;;;;;;;2.40;1.25;;;;;;;17.89;47.17;100888.00;5046991;28;20062;-70
2022/05/27 19:46:13;;;;;;;2.20;1.00;;;;;;;17.82;47.20;100894.13;5044294;28;20041;-70
2022/05/27 19:48:39;;;;;;;2.83;1.10;;;;;;;17.75;46.69;100890.50;5045040;28;20041;-70
2022/05/27 19:51:13;;;;;;;3.20;1.23;;;;;;;17.68;46.61;100899.50;5044649;28;20035;-69
2022/05/27 19:53:38;;;;;;;3.00;1.17;;;;;;;17.62;46.76;100903.75;5045630;28;20675;-70
2022/05/27 19:56:04;;;;;;;2.60;0.90;;;;;;;17.52;47.02;100911.22;5044953;28;20033;-70
2022/05/27 20:01:13;;;;;;;2.55;1.10;;;;;;;17.41;47.28;100924.06;5049004;28;20129;-70
2022/05/27 20:06:22;;;;;;;3.85;1.30;;;;;;;17.30;47.20;100924.53;5043408;28;20056;-69
2022/05/27 20:08:47;;;;;;;2.53;1.10;;;;;;;17.22;47.39;100932.69;5046570;28;20036;-70
2022/05/27 20:11:13;;;;;;;1.95;1.10;;;;;;;17.12;47.27;100937.47;5044185;28;20520;-70
2022/05/27 20:13:38;;;;;;;2.03;1.00;;;;;;;17.03;47.63;100941.25;5049314;28;20029;-70
2022/05/27 20:16:04;;;;;;;2.40;0.98;;;;;;;16.93;47.87;100947.69;5049727;28;20036;-69
2022/05/27 20:18:29;;;;;;;2.30;1.00;;;;;;;16.81;48.23;100938.47;5045430;28;20033;-69
2022/05/27 20:20:54;;;;;;;3.67;1.15;;;;;;;16.69;48.35;100945.25;5040869;28;20041;-69
2022/05/27 20:23:20;;;;;;;5.05;1.60;;;;;;;16.54;48.20;100948.72;5049072;28;20555;-69